X  Zatvorit Metar udaje     LZPP Piešťany Airport
Teplota
57°F Teplota
54°F Rosny bod
88% Vlhkost



Vietor
8 MPH
13 KM/h
4 M/S
7 KTS



360°
Se
Aktualne pocasie

Jasno Jasno
Tlak 1010.84 (hPa) - 29.85 (inHg)
Viditelnost 6 (mile) - 9.7 (km)
Letisko
Kod letiska LZPP

Miesto: Piešťany Airport
Vzdialenost: 31 (mi)

Metar:
LZPP 190400Z 36007KT CAVOK 14/12 Q1011

Cas: 19-05-2024 06:00 CEST